FW1230 Myakka City FL US current weather conditions

sailwx.info

Wind from 172

Air temperature 24.4° C
Dewpoint 23.2° C

Last reported at 2020-Aug-10 05:54 UTC.
Time now 2020-Aug-10 08:04 UTC

Location: N 27°20' W 082°14'.
View on Google Maps.

See reports from other nearby stations

  
Tides and Currents Weather Stations Pressure Air Temp Water Temp Dewpoint Dewpoint Depression Visibility Wind Speed Wind Dir Waves Ship Positions
date/time (UTC)wind fromknots sea level pressurealtimeterstation pressurevisibilityair tempwater tempwave heightnotes
2020-Aug-10 05:54 172 24.4
2020-Aug-10 05:36 165 2 gusting 4 24.4
2020-Aug-10 05:19 337 24.4
2020-Aug-10 04:59 337 0 gusting 2 24.4
2020-Aug-10 04:44 336 24.4
2020-Aug-10 04:29 336 0 gusting 2 24.4
2020-Aug-10 04:10 336 24.4
2020-Aug-10 03:54 336 24.4
2020-Aug-10 03:34 337 24.4
2020-Aug-10 03:14 337 24.4
2020-Aug-10 02:54 337 0 gusting 3 24.4
2020-Aug-10 02:35 336 1 gusting 2 24.4
2020-Aug-10 02:19 337 24.4
2020-Aug-10 01:59 337 24.4
2020-Aug-10 01:39 337 24.4
2020-Aug-10 01:24 337 24.4
2020-Aug-10 01:04 337 3 gusting 6 24.4
2020-Aug-10 00:49 118 25.0
2020-Aug-10 00:29 119 0 gusting 2 25.0
2020-Aug-10 00:10 144 2 gusting 3 25.0
2020-Aug-09 23:54 162 25.0
2020-Aug-09 23:39 162 25.6
2020-Aug-09 23:24 161 1 gusting 5 25.6
2020-Aug-09 21:54 325 5 gusting 14 26.1
2020-Aug-09 21:34 272 8 gusting 18 28.9
2020-Aug-09 21:19 281 3 gusting 9 34.4
2020-Aug-09 20:59 255 3 gusting 10 34.4
2020-Aug-09 20:44 259 2 gusting 7 34.4
2020-Aug-09 20:29 250 2 gusting 7 33.9
2020-Aug-09 20:09 206 3 gusting 8 33.9
2020-Aug-09 19:49 221 2 gusting 7 33.9
2020-Aug-09 19:29 179 3 gusting 7 33.3
2020-Aug-09 19:14 221 2 gusting 6 33.9
2020-Aug-09 18:54 180 1 gusting 6 32.8
2020-Aug-09 18:39 178 2 gusting 5 33.3
2020-Aug-09 18:24 229 5 gusting 8 33.3
2020-Aug-09 18:04 228 4 gusting 9 33.3
2020-Aug-09 17:45 216 0 gusting 4 33.3
2020-Aug-09 17:24 150 2 gusting 6 32.8
2020-Aug-09 17:09 195 1 gusting 5 32.2
2020-Aug-09 16:49 142 1 gusting 6 32.8
2020-Aug-09 16:29 219 2 gusting 5 32.2
2020-Aug-09 16:09 124 2 gusting 6 31.7
2020-Aug-09 15:54 202 2 gusting 7 32.2
2020-Aug-09 15:39 155 1 gusting 6 31.7
2020-Aug-09 15:19 201 2 gusting 6 31.1
2020-Aug-09 15:04 203 1 gusting 5 31.1
2020-Aug-09 14:49 165 30.6
2020-Aug-09 14:30 230 2 gusting 6 30.6
2020-Aug-09 14:14 226 1 gusting 4 30.0
2020-Aug-09 13:54 231 1 gusting 5 29.4
2020-Aug-09 13:39 174 2 gusting 4 29.4
2020-Aug-09 13:24 198 1 gusting 4 28.9
2020-Aug-09 13:04 175 1 gusting 4 27.8
2020-Aug-09 12:46 159 2 gusting 5 27.2
2020-Aug-09 12:29 186 27.2
2020-Aug-09 12:09 255 1 gusting 3 26.1
2020-Aug-09 11:50 298 25.6
2020-Aug-09 11:34 298 25.0
2020-Aug-09 11:14 298 24.4
2020-Aug-09 10:55 298 24.4
2020-Aug-09 10:27 298 25.0
2020-Aug-09 09:44 298 25.0
2020-Aug-09 09:24 298 25.0
2020-Aug-09 09:04 298 25.0
2020-Aug-09 08:49 298 25.0
2020-Aug-09 08:24 298 25.0
2020-Aug-09 08:09 298 25.0
2020-Aug-09 07:49 298 25.0
2020-Aug-09 07:29 298 25.0
2020-Aug-09 07:09 298 25.0
2020-Aug-09 06:49 298 25.0
2020-Aug-09 06:30 298 25.0
2020-Aug-09 06:08 298 25.6
2020-Aug-09 05:19 298 25.6
2020-Aug-09 05:04 298 25.6
2020-Aug-09 04:49 298 25.6
2020-Aug-09 04:34 298 25.6
2020-Aug-09 03:49 320 26.1
2020-Aug-09 03:32 320 26.1
2020-Aug-09 03:15 320 26.1
2020-Aug-09 02:59 320 0 gusting 1 26.1
2020-Aug-09 02:44 282 26.1
2020-Aug-09 02:25 282 26.7
2020-Aug-09 02:10 282 26.7
2020-Aug-09 01:54 281 27.2
2020-Aug-09 01:35 284 0 gusting 2 27.2
2020-Aug-09 01:15 270 1 gusting 3 27.8
2020-Aug-09 00:59 180 1 gusting 3 27.8
2020-Aug-09 00:40 145 1 gusting 3 28.3
2020-Aug-09 00:25 145 1 gusting 4 28.3
2020-Aug-09 00:10 173 0 gusting 6 28.9
2020-Aug-08 23:50 109 29.4
2020-Aug-08 23:30 106 1 gusting 3 28.9
2020-Aug-08 23:10 088 1 gusting 5 28.3
2020-Aug-08 22:50 092 1 gusting 4 28.9
2020-Aug-08 22:35 173 28.9
2020-Aug-08 22:15 069 3 gusting 7 30.6
2020-Aug-08 21:54 106 2 gusting 8 31.7
2020-Aug-08 21:35 014 33.9
2020-Aug-08 21:19 014 34.4
2020-Aug-08 20:59 014 1 gusting 5 34.4
2020-Aug-08 20:44 016 2 gusting 6 33.9
2020-Aug-08 20:25 061 1 gusting 4 33.9
2020-Aug-08 20:09 089 0 gusting 2 33.3
2020-Aug-08 19:54 167 33.3
2020-Aug-08 19:35 195 0 gusting 2 34.4
2020-Aug-08 19:15 180 0 gusting 3 32.8
2020-Aug-08 18:59 036 32.8
2020-Aug-08 18:39 034 1 gusting 4 33.3
2020-Aug-08 18:24 348 2 gusting 6 33.3
2020-Aug-08 18:05 043 0 gusting 4 32.8
2020-Aug-08 17:45 175 2 gusting 6 32.8
2020-Aug-08 17:30 143 1 gusting 4 32.8
2020-Aug-08 17:14 234 32.2
2020-Aug-08 16:55 203 2 gusting 5 32.2
2020-Aug-08 16:39 140 3 gusting 7 31.7
2020-Aug-08 16:25 213 31.7
2020-Aug-08 16:04 217 31.1
2020-Aug-08 15:45 222 1 gusting 6 31.1
2020-Aug-08 15:25 160 0 gusting 3 30.6
2020-Aug-08 15:05 260 0 gusting 5 30.0
2020-Aug-08 14:50 274 29.4
2020-Aug-08 14:31 174 0 gusting 3 28.9
2020-Aug-08 14:14 239 0 gusting 2 28.3
2020-Aug-08 13:55 196 27.8
2020-Aug-08 13:40 176 27.2
2020-Aug-08 13:20 168 0 gusting 3 26.1
2020-Aug-08 13:04 177 1 gusting 3 25.6
2020-Aug-08 12:45 168 0 gusting 3 25.0
2020-Aug-08 12:25 163 22.8
2020-Aug-08 08:54 245 22.8
2020-Aug-08 08:33 245 22.8
2020-Aug-08 08:14 245 23.3